Time;durP1;ratioP1;P1;durP2;ratioP2;P2;SDS_P1;SDS_P2;PMS_P1;PMS_P2;Temp;Humidity;BMP_temperature;BMP_pressure;BME280_temperature;BME280_humidity;BME280_pressure;Samples;Min_cycle;Max_cycle;Signal;HPM_P1;HPM_P2
2023/11/15 00:00:42;;;;;;;2.47;0.90;;;9.50;99.90;;;;;;5062293;28;20713;-71
2023/11/15 00:03:29;;;;;;;5.40;2.03;;;9.50;99.90;;;;;;5064500;28;20223;-72
2023/11/15 00:06:17;;;;;;;7.70;2.40;;;9.40;99.90;;;;;;5064589;28;20546;-72
2023/11/15 00:09:06;;;;;;;8.10;2.30;;;9.40;99.90;;;;;;5061157;28;20192;-72
2023/11/15 00:11:53;;;;;;;6.43;1.57;;;9.30;99.90;;;;;;5052589;28;20193;-72
2023/11/15 00:14:40;;;;;;;6.87;2.13;;;9.40;99.90;;;;;;5068512;28;20200;-72
2023/11/15 00:17:30;;;;;;;8.30;2.60;;;9.30;99.90;;;;;;5067889;28;20215;-72
2023/11/15 00:20:18;;;;;;;5.03;2.00;;;9.30;99.90;;;;;;5067066;28;20261;-72
2023/11/15 00:23:06;;;;;;;4.77;2.23;;;9.30;99.90;;;;;;5063470;28;20686;-72
2023/11/15 00:25:53;;;;;;;6.10;2.17;;;9.20;99.90;;;;;;5064076;28;20206;-72
2023/11/15 00:28:40;;;;;;;8.37;2.80;;;9.30;99.90;;;;;;5065451;28;20209;-73
2023/11/15 00:31:27;;;;;;;6.13;2.73;;;9.20;99.90;;;;;;5072459;28;20249;-72
2023/11/15 00:34:16;;;;;;;4.37;1.87;;;9.20;99.90;;;;;;5061600;28;20569;-72
2023/11/15 00:37:04;;;;;;;2.47;1.37;;;9.20;99.90;;;;;;5064402;28;20268;-71
2023/11/15 00:39:52;;;;;;;5.23;2.10;;;9.10;99.90;;;;;;5064011;28;20204;-72
2023/11/15 00:42:39;;;;;;;6.23;2.20;;;9.10;99.90;;;;;;5065385;28;21053;-72
2023/11/15 00:45:26;;;;;;;6.93;2.10;;;9.10;99.90;;;;;;5063783;28;20206;-72
2023/11/15 00:48:14;;;;;;;8.10;2.20;;;9.00;99.90;;;;;;5060828;28;20208;-72
2023/11/15 00:51:02;;;;;;;4.97;2.53;;;9.00;99.90;;;;;;5068524;28;20212;-72
2023/11/15 00:53:50;;;;;;;3.93;1.63;;;9.00;99.90;;;;;;5066318;28;20200;-72
2023/11/15 00:56:37;;;;;;;4.70;1.67;;;9.00;99.90;;;;;;5067877;28;20309;-72
2023/11/15 00:59:27;;;;;;;2.57;1.30;;;9.00;99.90;;;;;;5069013;28;20228;-72
2023/11/15 01:02:16;;;;;;;4.97;2.00;;;9.00;99.90;;;;;;5061064;28;20224;-72
2023/11/15 01:05:04;;;;;;;5.80;1.90;;;9.00;99.90;;;;;;5065166;28;20282;-72
2023/11/15 01:07:52;;;;;;;3.50;1.50;;;8.80;99.90;;;;;;5064232;28;20698;-72
2023/11/15 01:10:40;;;;;;;8.23;2.10;;;8.90;99.90;;;;;;5064737;28;20223;-73
2023/11/15 01:13:27;;;;;;;4.33;1.93;;;8.80;99.90;;;;;;5068359;28;20580;-72
2023/11/15 01:16:14;;;;;;;3.20;1.70;;;8.80;99.90;;;;;;5064080;28;20259;-71
2023/11/15 01:19:02;;;;;;;1.37;1.00;;;8.80;99.90;;;;;;5060831;28;20201;-72
2023/11/15 01:21:50;;;;;;;5.13;2.33;;;8.80;99.90;;;;;;5070351;28;20249;-72
2023/11/15 01:24:41;;;;;;;7.97;2.80;;;8.70;99.90;;;;;;5069667;28;20203;-72
2023/11/15 01:27:28;;;;;;;5.23;2.40;;;8.70;99.90;;;;;;5069312;28;20211;-72
2023/11/15 01:30:15;;;;;;;6.03;2.77;;;8.70;99.90;;;;;;5064929;28;20200;-72
2023/11/15 01:33:03;;;;;;;5.27;2.37;;;8.60;99.90;;;;;;5066542;28;20209;-72
2023/11/15 01:35:50;;;;;;;1.83;1.40;;;8.60;99.90;;;;;;5062173;28;20217;-71
2023/11/15 01:38:37;;;;;;;6.70;2.77;;;8.50;99.90;;;;;;5064873;28;20658;-72
2023/11/15 01:41:26;;;;;;;4.93;2.70;;;8.40;99.90;;;;;;5065942;28;20363;-72
2023/11/15 01:44:13;;;;;;;3.27;1.70;;;8.40;99.90;;;;;;5068213;28;20226;-72
2023/11/15 01:47:00;;;;;;;5.50;2.57;;;8.40;99.90;;;;;;5053079;28;20201;-72
2023/11/15 01:49:48;;;;;;;6.43;2.70;;;8.30;99.90;;;;;;5060541;28;20193;-72
2023/11/15 01:52:35;;;;;;;7.53;1.57;;;8.30;99.90;;;;;;5054238;28;20211;-72
2023/11/15 01:55:22;;;;;;;5.93;3.10;;;8.20;99.90;;;;;;5056145;28;20686;-73
2023/11/15 01:58:11;;;;;;;7.77;3.40;;;8.20;99.90;;;;;;5063482;28;20207;-74
2023/11/15 02:00:58;;;;;;;5.17;3.00;;;8.10;99.90;;;;;;5061248;28;20227;-73
2023/11/15 02:03:45;;;;;;;3.50;2.10;;;8.10;99.90;;;;;;5063132;28;20203;-72
2023/11/15 02:06:35;;;;;;;7.47;2.07;;;8.00;99.90;;;;;;5054414;28;20207;-73
2023/11/15 02:09:22;;;;;;;7.40;3.50;;;8.10;99.90;;;;;;5067492;28;20231;-72
2023/11/15 02:12:09;;;;;;;10.43;2.97;;;8.00;99.90;;;;;;5064482;28;20297;-73
2023/11/15 02:14:59;;;;;;;7.03;3.07;;;8.00;99.90;;;;;;5065230;28;20234;-72
2023/11/15 02:17:48;;;;;;;12.20;5.07;;;8.00;99.90;;;;;;5070763;28;20210;-73
2023/11/15 02:20:35;;;;;;;6.80;3.40;;;8.10;99.90;;;;;;5070889;28;20226;-73
2023/11/15 02:23:23;;;;;;;9.67;5.10;;;8.00;99.90;;;;;;5067396;28;20203;-73
2023/11/15 02:26:12;;;;;;;8.97;4.60;;;8.00;99.90;;;;;;5067406;28;20208;-73
2023/11/15 02:29:00;;;;;;;10.00;5.57;;;8.00;99.90;;;;;;5070555;28;20219;-73
2023/11/15 02:31:47;;;;;;;7.57;4.13;;;7.90;99.90;;;;;;5064061;28;20208;-73
2023/11/15 02:34:34;;;;;;;8.47;4.57;;;8.00;99.90;;;;;;5049104;28;20279;-73
2023/11/15 02:37:21;;;;;;;2.77;1.73;;;8.00;99.90;;;;;;5059840;28;20232;-71
2023/11/15 02:40:10;;;;;;;8.30;4.60;;;8.00;99.90;;;;;;5057554;28;20222;-72
2023/11/15 02:42:59;;;;;;;10.20;4.90;;;7.90;99.90;;;;;;5060670;28;20198;-72
2023/11/15 02:45:46;;;;;;;10.00;4.30;;;7.90;99.90;;;;;;5063886;28;20207;-73
2023/11/15 02:48:33;;;;;;;9.93;4.57;;;7.90;99.90;;;;;;5065462;28;20200;-72
2023/11/15 02:51:20;;;;;;;8.03;4.30;;;7.80;99.90;;;;;;5062849;28;20211;-73
2023/11/15 02:54:08;;;;;;;4.97;3.13;;;7.80;99.90;;;;;;5065064;28;20235;-72
2023/11/15 02:56:55;;;;;;;8.80;3.63;;;7.80;99.90;;;;;;5065094;28;20658;-72
2023/11/15 02:59:44;;;;;;;3.00;1.80;;;7.90;99.90;;;;;;5064625;28;20230;-72
2023/11/15 03:02:31;;;;;;;7.07;4.77;;;7.90;99.90;;;;;;5065512;28;20211;-73
2023/11/15 03:05:18;;;;;;;7.20;4.40;;;7.80;99.90;;;;;;5061516;28;20204;-73
2023/11/15 03:08:06;;;;;;;10.83;5.17;;;7.90;99.90;;;;;;5063275;28;20215;-73
2023/11/15 03:10:53;;;;;;;5.00;3.70;;;7.80;99.90;;;;;;5062641;28;20228;-73
2023/11/15 03:13:40;;;;;;;8.40;4.93;;;7.80;99.90;;;;;;5059508;28;20692;-73
2023/11/15 03:16:29;;;;;;;13.07;6.87;;;7.80;99.90;;;;;;5061549;28;20225;-73
2023/11/15 03:19:16;;;;;;;8.93;5.97;;;7.70;99.90;;;;;;5057713;28;20204;-73
2023/11/15 03:22:05;;;;;;;6.30;3.17;;;7.80;99.90;;;;;;5052503;28;20212;-72
2023/11/15 03:24:52;;;;;;;10.97;6.50;;;7.80;99.90;;;;;;5066733;28;20564;-73
2023/11/15 03:27:39;;;;;;;13.93;7.03;;;7.70;99.90;;;;;;5060955;28;20219;-73
2023/11/15 03:30:27;;;;;;;7.70;4.03;;;7.80;99.90;;;;;;5067436;28;20227;-73
2023/11/15 03:33:15;;;;;;;7.13;3.83;;;7.80;99.90;;;;;;5061470;28;20611;-73
2023/11/15 03:36:03;;;;;;;9.43;5.63;;;7.70;99.90;;;;;;5049267;28;20255;-73
2023/11/15 03:38:50;;;;;;;10.57;6.07;;;7.70;99.90;;;;;;5049744;28;20304;-73
2023/11/15 03:41:37;;;;;;;9.27;5.00;;;7.70;99.90;;;;;;5045409;28;20228;-72
2023/11/15 03:44:24;;;;;;;11.80;7.00;;;7.70;99.90;;;;;;5058423;28;20209;-73
2023/11/15 03:47:11;;;;;;;14.10;7.30;;;7.60;99.90;;;;;;5060151;28;20230;-73
2023/11/15 03:50:00;;;;;;;11.33;7.27;;;7.70;99.90;;;;;;5058917;28;20198;-73
2023/11/15 03:52:48;;;;;;;7.13;3.87;;;7.60;99.90;;;;;;5058315;28;20208;-72
2023/11/15 03:55:35;;;;;;;10.43;7.40;;;7.60;99.90;;;;;;5061641;28;20260;-73
2023/11/15 03:58:23;;;;;;;11.53;7.43;;;7.60;99.90;;;;;;5058453;28;20215;-73
2023/11/15 04:01:10;;;;;;;12.67;6.40;;;7.60;99.90;;;;;;5062330;28;20211;-73
2023/11/15 04:03:57;;;;;;;7.57;5.20;;;7.60;99.90;;;;;;5064626;28;20240;-73
2023/11/15 04:06:46;;;;;;;3.97;2.90;;;7.60;99.90;;;;;;5063670;28;20710;-73
2023/11/15 04:09:33;;;;;;;5.73;4.07;;;7.60;99.90;;;;;;5067328;28;20227;-73
2023/11/15 04:12:21;;;;;;;11.90;6.50;;;7.60;99.90;;;;;;5070245;28;20208;-73
2023/11/15 04:15:10;;;;;;;5.63;3.23;;;7.50;99.90;;;;;;5060803;28;20204;-72
2023/11/15 04:17:57;;;;;;;9.80;7.20;;;7.60;99.90;;;;;;5062244;28;20259;-72
2023/11/15 04:20:44;;;;;;;11.83;6.70;;;7.50;99.90;;;;;;5065879;28;20226;-73
2023/11/15 04:23:33;;;;;;;10.37;6.43;;;7.50;99.90;;;;;;5056784;28;20201;-74
2023/11/15 04:26:21;;;;;;;5.30;3.60;;;7.50;99.90;;;;;;5064404;28;20210;-73
2023/11/15 04:29:08;;;;;;;9.30;6.00;;;7.50;99.90;;;;;;5060243;28;20210;-73
2023/11/15 04:31:55;;;;;;;4.60;2.47;;;7.50;99.90;;;;;;5063575;28;20825;-73
2023/11/15 04:34:43;;;;;;;3.57;2.70;;;7.50;99.90;;;;;;5061251;28;20209;-73
2023/11/15 04:37:30;;;;;;;5.37;3.70;;;7.40;99.90;;;;;;5060170;28;20265;-72
2023/11/15 04:40:20;;;;;;;7.63;4.80;;;7.50;99.90;;;;;;5065833;28;20590;-74
2023/11/15 04:43:07;;;;;;;6.73;4.13;;;7.40;99.90;;;;;;5057619;28;20689;-74
2023/11/15 04:45:55;;;;;;;3.93;2.43;;;7.40;99.90;;;;;;5061090;28;20194;-74
2023/11/15 04:48:42;;;;;;;11.90;5.30;;;7.50;99.90;;;;;;5064563;28;20202;-74
2023/11/15 04:51:29;;;;;;;10.93;5.57;;;7.40;99.90;;;;;;5062013;28;20245;-74
2023/11/15 04:54:16;;;;;;;2.33;1.77;;;7.40;99.90;;;;;;5062532;28;20579;-73
2023/11/15 04:57:05;;;;;;;7.03;5.30;;;7.40;99.90;;;;;;5059304;28;20203;-73
2023/11/15 04:59:55;;;;;;;5.80;3.13;;;7.30;99.90;;;;;;5054989;28;20211;-73
2023/11/15 05:02:42;;;;;;;6.23;4.70;;;7.30;99.90;;;;;;5055817;28;20612;-74
2023/11/15 05:05:29;;;;;;;8.13;4.80;;;7.40;99.90;;;;;;5060098;28;20574;-74
2023/11/15 05:08:17;;;;;;;7.77;4.93;;;7.40;99.90;;;;;;5059566;28;20195;-73
2023/11/15 05:11:05;;;;;;;11.53;6.50;;;7.40;99.90;;;;;;5062391;28;20260;-74
2023/11/15 05:13:53;;;;;;;8.90;6.20;;;7.30;99.90;;;;;;5061299;28;20209;-74
2023/11/15 05:16:40;;;;;;;9.73;6.70;;;7.30;99.90;;;;;;5061124;28;20206;-74
2023/11/15 05:19:28;;;;;;;8.27;6.00;;;7.30;99.90;;;;;;5065027;28;20216;-74
2023/11/15 05:22:15;;;;;;;9.00;4.37;;;7.30;99.90;;;;;;5063546;28;20740;-73
2023/11/15 05:25:02;;;;;;;8.20;5.00;;;7.30;99.90;;;;;;5059382;28;20279;-73
2023/11/15 05:27:49;;;;;;;9.57;4.80;;;7.30;99.90;;;;;;5062310;28;20212;-73
2023/11/15 05:30:39;;;;;;;8.53;4.80;;;7.30;99.90;;;;;;5060314;28;20196;-74
2023/11/15 05:33:26;;;;;;;6.90;4.67;;;7.30;99.90;;;;;;5066303;28;20588;-74
2023/11/15 05:36:13;;;;;;;4.87;3.37;;;7.30;99.90;;;;;;5065804;28;20223;-74
2023/11/15 05:39:01;;;;;;;7.13;4.50;;;7.30;99.90;;;;;;5063195;28;20203;-73
2023/11/15 05:41:48;;;;;;;4.73;3.63;;;7.40;99.90;;;;;;5064097;28;20215;-73
2023/11/15 05:44:35;;;;;;;5.40;3.67;;;7.30;99.90;;;;;;5068430;28;20221;-73
2023/11/15 05:47:25;;;;;;;5.50;3.73;;;7.40;99.90;;;;;;5064773;28;20193;-73
2023/11/15 05:50:12;;;;;;;8.07;4.13;;;7.30;99.90;;;;;;5066366;28;20199;-74
2023/11/15 05:52:59;;;;;;;3.67;2.57;;;7.30;99.90;;;;;;5059258;28;20203;-74
2023/11/15 05:55:47;;;;;;;6.00;4.90;;;7.30;99.90;;;;;;5068969;28;20205;-74
2023/11/15 05:58:34;;;;;;;7.57;4.97;;;7.30;99.90;;;;;;5067784;28;20700;-74
2023/11/15 06:01:21;;;;;;;7.83;5.30;;;7.30;99.90;;;;;;5068495;28;20216;-74
2023/11/15 06:04:10;;;;;;;5.93;3.57;;;7.20;99.90;;;;;;5063334;28;20215;-73
2023/11/15 06:06:58;;;;;;;13.07;5.70;;;7.30;99.90;;;;;;5061274;28;20265;-73
2023/11/15 06:09:46;;;;;;;10.43;7.07;;;7.30;99.90;;;;;;5066968;28;20236;-74
2023/11/15 06:12:35;;;;;;;9.77;6.27;;;7.20;99.90;;;;;;5069548;28;20713;-74
2023/11/15 06:15:22;;;;;;;9.03;6.20;;;7.30;99.90;;;;;;5070054;28;20693;-74
2023/11/15 06:18:10;;;;;;;8.23;5.63;;;7.30;99.90;;;;;;5066218;28;20204;-73
2023/11/15 06:20:59;;;;;;;8.63;6.03;;;7.30;99.90;;;;;;5062579;28;20220;-74
2023/11/15 06:23:46;;;;;;;5.30;3.63;;;7.30;99.90;;;;;;5064322;28;20513;-73
2023/11/15 06:26:36;;;;;;;11.07;6.07;;;7.30;99.90;;;;;;5063535;28;20211;-74
2023/11/15 06:29:23;;;;;;;9.37;6.30;;;7.30;99.90;;;;;;5067444;28;20365;-74
2023/11/15 06:32:11;;;;;;;12.00;6.60;;;7.30;99.90;;;;;;5069058;28;20221;-73
2023/11/15 06:34:58;;;;;;;9.53;6.63;;;7.30;99.90;;;;;;5064328;28;20957;-74
2023/11/15 06:37:48;;;;;;;9.53;6.30;;;7.30;99.90;;;;;;5065162;28;20319;-74
2023/11/15 06:40:35;;;;;;;8.43;5.87;;;7.30;99.90;;;;;;5061258;28;20203;-74
2023/11/15 06:43:22;;;;;;;10.97;7.03;;;7.30;99.90;;;;;;5067547;28;20225;-74
2023/11/15 06:46:09;;;;;;;8.43;5.03;;;7.30;99.90;;;;;;5062819;28;20651;-74
2023/11/15 06:48:57;;;;;;;13.80;8.53;;;7.30;99.90;;;;;;5060707;28;20692;-74
2023/11/15 06:51:48;;;;;;;6.53;4.10;;;7.30;99.90;;;;;;5064760;28;20218;-74
2023/11/15 06:54:36;;;;;;;12.67;7.53;;;7.30;99.90;;;;;;5064162;28;20659;-73
2023/11/15 06:57:24;;;;;;;12.07;7.53;;;7.40;99.90;;;;;;5068266;28;20639;-74
2023/11/15 07:00:12;;;;;;;11.07;7.43;;;7.40;99.90;;;;;;5065178;28;20204;-74
2023/11/15 07:03:01;;;;;;;13.07;7.73;;;7.30;99.90;;;;;;5061730;28;20204;-73
2023/11/15 07:05:48;;;;;;;11.53;8.10;;;7.40;99.90;;;;;;5065337;28;20211;-74
2023/11/15 07:08:35;;;;;;;11.67;7.07;;;7.40;99.90;;;;;;5061912;28;20207;-73
2023/11/15 07:11:24;;;;;;;12.30;7.37;;;7.40;99.90;;;;;;5067551;28;20738;-74
2023/11/15 07:14:12;;;;;;;8.87;5.70;;;7.40;99.90;;;;;;5060396;28;20660;-74
2023/11/15 07:16:59;;;;;;;9.20;6.63;;;7.40;99.90;;;;;;5063288;28;20202;-73
2023/11/15 07:19:47;;;;;;;9.73;6.07;;;7.40;99.90;;;;;;5062713;28;20204;-74
2023/11/15 07:22:35;;;;;;;11.23;7.27;;;7.40;99.90;;;;;;5064303;28;20231;-74
2023/11/15 07:25:23;;;;;;;5.90;3.57;;;7.30;99.90;;;;;;5061263;28;20543;-73
2023/11/15 07:28:12;;;;;;;9.93;6.23;;;7.40;99.90;;;;;;5063097;28;20666;-73
2023/11/15 07:30:59;;;;;;;13.37;8.50;;;7.40;99.90;;;;;;5066250;28;20196;-72
2023/11/15 07:33:47;;;;;;;11.17;7.33;;;7.40;99.90;;;;;;5059649;28;20196;-72
2023/11/15 07:36:34;;;;;;;7.83;5.33;;;7.40;99.90;;;;;;5063089;28;20256;-73
2023/11/15 07:39:21;;;;;;;12.67;8.60;;;7.50;99.90;;;;;;5066267;28;20286;-73
2023/11/15 07:42:08;;;;;;;15.90;8.27;;;7.40;99.90;;;;;;5063356;28;20227;-73
2023/11/15 07:44:57;;;;;;;10.10;7.17;;;7.40;99.90;;;;;;5063055;28;20215;-73
2023/11/15 07:47:45;;;;;;;11.30;8.07;;;7.50;99.90;;;;;;5059499;28;20209;-74
2023/11/15 07:50:33;;;;;;;9.53;5.83;;;7.50;99.90;;;;;;5062418;28;20220;-74
2023/11/15 07:53:20;;;;;;;13.23;7.40;;;7.50;99.90;;;;;;5068445;28;20209;-74
2023/11/15 07:56:08;;;;;;;14.90;8.27;;;7.60;99.90;;;;;;5059211;28;20197;-74
2023/11/15 07:58:55;;;;;;;11.10;7.53;;;7.60;99.90;;;;;;5063512;28;20808;-74
2023/11/15 08:01:44;;;;;;;15.20;8.17;;;7.60;99.90;;;;;;5067394;28;20218;-74
2023/11/15 08:04:31;;;;;;;4.93;2.97;;;7.60;99.90;;;;;;5067756;28;20672;-73
2023/11/15 08:07:21;;;;;;;13.03;8.30;;;7.60;99.90;;;;;;5063458;28;20203;-74
2023/11/15 08:10:13;;;;;;;8.80;4.13;;;7.70;99.90;;;;;;5066866;28;20258;-73
2023/11/15 08:13:00;;;;;;;9.80;6.03;;;7.70;99.90;;;;;;5063408;28;20560;-74
2023/11/15 08:15:47;;;;;;;13.33;6.70;;;7.70;99.90;;;;;;5065410;28;20207;-74
2023/11/15 08:18:37;;;;;;;11.67;4.20;;;7.70;99.90;;;;;;5069797;28;20680;-73
2023/11/15 08:21:25;;;;;;;14.00;7.63;;;7.70;99.90;;;;;;5062147;28;20713;-74
2023/11/15 08:24:16;;;;;;;10.67;6.83;;;7.70;99.90;;;;;;5064578;28;20588;-73
2023/11/15 08:27:04;;;;;;;12.87;7.77;;;7.80;99.90;;;;;;5058478;28;20724;-73
2023/11/15 08:29:51;;;;;;;11.73;6.67;;;7.70;99.90;;;;;;5059010;28;20653;-73
2023/11/15 08:32:41;;;;;;;9.50;4.80;;;7.80;99.90;;;;;;5062458;28;20211;-73
2023/11/15 08:35:30;;;;;;;6.70;4.30;;;7.90;99.90;;;;;;5063074;28;20586;-73
2023/11/15 08:38:18;;;;;;;3.10;1.73;;;7.90;99.90;;;;;;5061873;28;20207;-73
2023/11/15 08:41:06;;;;;;;8.40;4.00;;;8.00;99.90;;;;;;5063225;28;20294;-73
2023/11/15 08:43:53;;;;;;;4.10;1.53;;;8.00;99.90;;;;;;5060667;28;20299;-73
2023/11/15 08:46:44;;;;;;;6.93;4.17;;;8.00;99.90;;;;;;5062903;28;20219;-73
2023/11/15 08:49:31;;;;;;;7.90;3.93;;;7.90;99.90;;;;;;5063103;28;20222;-73
2023/11/15 08:52:20;;;;;;;7.00;4.40;;;8.00;99.90;;;;;;5064700;28;20203;-73
2023/11/15 08:55:09;;;;;;;7.03;4.60;;;7.90;99.90;;;;;;5064742;28;20194;-73
2023/11/15 08:57:56;;;;;;;8.23;4.00;;;7.90;99.90;;;;;;5060881;28;20291;-73
2023/11/15 09:00:46;;;;;;;7.97;5.30;;;7.90;99.90;;;;;;5064503;28;20647;-74
2023/11/15 09:03:34;;;;;;;4.60;3.27;;;7.90;99.90;;;;;;5063089;28;20207;-74
2023/11/15 09:06:23;;;;;;;7.23;4.60;;;7.90;99.90;;;;;;5058022;28;20209;-74
2023/11/15 09:09:14;;;;;;;7.33;5.53;;;8.00;99.90;;;;;;5061154;28;20336;-73
2023/11/15 09:12:03;;;;;;;7.83;5.60;;;7.90;99.90;;;;;;5061283;28;20583;-73
2023/11/15 09:14:52;;;;;;;11.43;6.20;;;7.90;99.90;;;;;;5061868;28;20212;-73
2023/11/15 09:17:45;;;;;;;8.17;5.63;;;7.90;99.90;;;;;;5067914;28;20200;-73
2023/11/15 09:20:34;;;;;;;10.13;6.47;;;8.00;99.90;;;;;;5065329;28;20209;-74
2023/11/15 09:23:22;;;;;;;11.00;6.73;;;7.90;99.90;;;;;;5065445;28;20220;-73
2023/11/15 09:26:18;;;;;;;10.67;7.50;;;7.90;99.90;;;;;;5065917;28;20291;-73
2023/11/15 09:29:05;;;;;;;11.13;7.57;;;7.90;99.90;;;;;;5069032;28;20200;-74
2023/11/15 09:31:53;;;;;;;10.87;8.87;;;7.90;99.90;;;;;;5065035;28;20196;-74
2023/11/15 09:34:40;;;;;;;12.37;7.63;;;7.90;99.90;;;;;;5067518;28;21001;-73
2023/11/15 09:37:28;;;;;;;4.13;2.90;;;7.90;99.90;;;;;;5063511;28;20232;-73
2023/11/15 09:40:16;;;;;;;13.07;8.60;;;7.90;99.90;;;;;;5062838;28;20310;-73
2023/11/15 09:43:05;;;;;;;17.40;8.87;;;8.00;99.90;;;;;;5059980;28;20220;-74
2023/11/15 09:45:54;;;;;;;11.90;8.67;;;7.90;99.90;;;;;;5062176;28;20256;-74
2023/11/15 09:48:43;;;;;;;8.57;4.47;;;7.90;99.90;;;;;;5068659;28;20216;-73
2023/11/15 09:51:32;;;;;;;11.50;7.17;;;7.90;99.90;;;;;;5065254;28;20209;-74
2023/11/15 09:54:20;;;;;;;9.83;7.03;;;7.90;99.90;;;;;;5064514;28;20199;-74
2023/11/15 09:57:09;;;;;;;10.10;6.63;;;7.90;99.90;;;;;;5065882;28;20204;-74
2023/11/15 09:59:58;;;;;;;10.67;7.07;;;8.00;99.90;;;;;;5058344;28;20626;-74
2023/11/15 10:02:45;;;;;;;9.53;6.83;;;8.00;99.90;;;;;;5065845;28;20325;-73
2023/11/15 10:05:33;;;;;;;9.87;6.70;;;8.00;99.90;;;;;;5065745;28;20667;-73
2023/11/15 10:08:20;;;;;;;8.87;5.97;;;8.00;99.90;;;;;;5067672;28;20207;-73
2023/11/15 10:11:09;;;;;;;9.17;6.13;;;8.00;99.90;;;;;;5068036;28;20319;-73
2023/11/15 10:14:09;;;;;;;10.63;7.23;;;8.10;99.90;;;;;;5065105;28;20204;-73
2023/11/15 10:17:00;;;;;;;10.40;5.47;;;8.00;99.90;;;;;;5061507;28;20240;-73
2023/11/15 10:19:48;;;;;;;11.07;6.20;;;8.00;99.90;;;;;;5065795;28;20211;-73
2023/11/15 10:22:44;;;;;;;9.37;5.97;;;8.00;99.90;;;;;;5065605;28;20239;-73
2023/11/15 10:25:31;;;;;;;10.80;6.37;;;8.00;99.90;;;;;;5068544;28;20644;-73
2023/11/15 10:28:21;;;;;;;11.47;6.93;;;8.00;99.90;;;;;;5067246;28;20680;-73
2023/11/15 10:31:12;;;;;;;10.87;6.33;;;8.10;99.90;;;;;;5052791;28;20200;-73
2023/11/15 10:34:02;;;;;;;15.30;7.20;;;8.00;99.90;;;;;;5059762;28;20663;-73
2023/11/15 10:37:05;;;;;;;11.47;7.60;;;8.00;99.90;;;;;;5067492;28;20273;-74
2023/11/15 10:39:52;;;;;;;11.53;6.50;;;8.00;99.90;;;;;;5066214;28;20792;-73
2023/11/15 10:42:39;;;;;;;10.47;6.53;;;8.00;99.90;;;;;;5066892;28;20708;-73
2023/11/15 10:45:28;;;;;;;9.93;6.57;;;8.00;99.90;;;;;;5062622;28;20203;-74
2023/11/15 10:48:17;;;;;;;9.20;4.73;;;8.00;99.90;;;;;;5062537;28;20218;-73
2023/11/15 10:51:13;;;;;;;12.73;6.47;;;8.00;99.90;;;;;;5064506;28;20207;-73
2023/11/15 10:54:01;;;;;;;11.37;5.57;;;8.10;99.90;;;;;;5063333;28;20211;-73
2023/11/15 10:56:49;;;;;;;10.30;5.90;;;8.10;99.90;;;;;;5064836;28;20628;-73
2023/11/15 10:59:37;;;;;;;4.80;3.30;;;8.10;99.90;;;;;;5065256;28;20381;-72
2023/11/15 11:02:25;;;;;;;10.20;5.67;;;8.20;99.90;;;;;;5067425;28;20694;-73
2023/11/15 11:05:15;;;;;;;9.57;4.77;;;8.20;99.90;;;;;;5064783;28;20204;-73
2023/11/15 11:08:10;;;;;;;8.37;5.03;;;8.30;99.90;;;;;;5068544;28;20662;-73
2023/11/15 11:11:08;;;;;;;8.13;5.97;;;8.30;99.90;;;;;;5061025;28;20316;-73
2023/11/15 11:14:18;;;;;;;14.60;6.33;;;8.30;99.90;;;;;;5068676;28;20204;-73
2023/11/15 11:17:30;;;;;;;11.10;7.53;;;8.10;99.90;;;;;;5069985;28;20211;-73
2023/11/15 11:20:26;;;;;;;17.00;7.43;;;8.10;99.90;;;;;;5067129;28;20207;-74
2023/11/15 11:23:19;;;;;;;10.40;6.80;;;8.10;99.90;;;;;;5067302;28;20215;-74
2023/11/15 11:26:34;;;;;;;6.07;3.60;;;7.90;99.90;;;;;;5063681;28;20587;-73
2023/11/15 11:29:22;;;;;;;8.93;3.90;;;8.00;99.90;;;;;;5059822;28;20329;-73
2023/11/15 11:32:20;;;;;;;8.97;5.27;;;8.00;99.90;;;;;;5062925;28;20296;-73
2023/11/15 11:35:30;;;;;;;11.13;6.40;;;7.90;99.90;;;;;;5064377;28;20334;-73
2023/11/15 11:38:43;;;;;;;6.13;2.87;;;7.90;99.90;;;;;;5053507;28;20203;-73
2023/11/15 11:41:31;;;;;;;12.20;7.37;;;8.00;99.90;;;;;;5060992;28;20440;-73
2023/11/15 11:44:19;;;;;;;10.50;6.47;;;8.10;99.90;;;;;;5064824;28;20195;-73
2023/11/15 11:47:11;;;;;;;10.90;6.00;;;8.00;99.90;;;;;;5066679;28;20723;-73
2023/11/15 11:50:00;;;;;;;9.80;4.97;;;8.00;99.90;;;;;;5067763;28;20200;-74
2023/11/15 11:52:47;;;;;;;10.47;5.60;;;8.00;99.90;;;;;;5066717;28;20200;-73
2023/11/15 11:55:35;;;;;;;6.20;4.57;;;8.00;99.90;;;;;;5064146;28;20218;-74
2023/11/15 11:58:24;;;;;;;8.43;4.83;;;7.90;99.90;;;;;;5063175;28;20199;-74
2023/11/15 12:01:12;;;;;;;7.93;3.33;;;7.80;99.90;;;;;;5062921;28;20232;-73
2023/11/15 12:04:01;;;;;;;9.33;4.60;;;7.80;99.90;;;;;;5063819;28;20225;-74
2023/11/15 12:06:48;;;;;;;8.30;5.07;;;7.90;99.90;;;;;;5065852;28;20606;-74
2023/11/15 12:09:39;;;;;;;9.33;5.07;;;7.90;99.90;;;;;;5063482;28;20246;-74
2023/11/15 12:12:28;;;;;;;14.50;5.07;;;7.90;99.90;;;;;;5064483;28;20251;-73
2023/11/15 12:15:16;;;;;;;9.27;4.97;;;7.90;99.90;;;;;;5067881;28;20212;-73
2023/11/15 12:18:03;;;;;;;15.50;7.27;;;8.00;99.90;;;;;;5068900;28;20203;-73
2023/11/15 12:20:50;;;;;;;12.50;6.57;;;8.00;99.90;;;;;;5065009;28;20722;-73
2023/11/15 12:23:41;;;;;;;8.80;5.60;;;7.90;99.90;;;;;;5061605;28;20220;-73
2023/11/15 12:26:29;;;;;;;10.63;5.23;;;7.90;99.90;;;;;;5063269;28;20330;-73
2023/11/15 12:29:26;;;;;;;11.20;5.37;;;7.90;99.90;;;;;;5059582;28;20203;-73
2023/11/15 12:32:13;;;;;;;6.73;3.03;;;7.90;99.90;;;;;;5054764;28;20271;-73
2023/11/15 12:35:01;;;;;;;5.97;3.20;;;7.80;99.90;;;;;;5057779;28;20287;-74
2023/11/15 12:37:49;;;;;;;7.43;2.73;;;7.70;99.90;;;;;;5062319;28;20199;-72
2023/11/15 12:40:37;;;;;;;4.63;3.30;;;7.80;99.90;;;;;;5062940;28;20582;-74
2023/11/15 12:43:27;;;;;;;4.47;2.50;;;7.70;99.90;;;;;;5054498;28;20243;-73
2023/11/15 12:46:17;;;;;;;4.50;3.07;;;7.80;99.90;;;;;;5059229;28;20262;-74
2023/11/15 12:49:11;;;;;;;4.13;2.77;;;7.80;99.90;;;;;;5059671;28;20389;-73
2023/11/15 12:51:58;;;;;;;8.23;4.90;;;7.90;99.90;;;;;;5060698;28;20204;-73
2023/11/15 12:54:55;;;;;;;7.37;3.80;;;8.30;99.90;;;;;;5061503;28;20203;-73
2023/11/15 12:57:52;;;;;;;4.87;2.80;;;8.40;99.90;;;;;;5060793;28;20200;-73
2023/11/15 13:00:40;;;;;;;6.07;3.33;;;8.60;99.90;;;;;;5068035;28;20229;-73
2023/11/15 13:03:30;;;;;;;8.37;2.70;;;8.60;99.90;;;;;;5064923;28;20219;-73
2023/11/15 13:06:18;;;;;;;6.87;3.30;;;8.50;99.90;;;;;;5065298;28;20204;-73
2023/11/15 13:09:07;;;;;;;4.80;2.87;;;8.40;99.90;;;;;;5061279;28;20729;-72
2023/11/15 13:11:56;;;;;;;7.07;3.07;;;8.30;99.90;;;;;;5063252;28;20329;-72
2023/11/15 13:14:44;;;;;;;6.63;3.20;;;8.60;99.90;;;;;;5064224;28;21622;-73
2023/11/15 13:17:32;;;;;;;5.13;2.40;;;9.00;99.90;;;;;;5061210;28;20358;-73
2023/11/15 13:20:20;;;;;;;6.53;2.30;;;9.10;99.90;;;;;;5063781;28;20686;-73
2023/11/15 13:23:08;;;;;;;7.37;2.63;;;9.30;99.90;;;;;;5061309;28;20704;-72
2023/11/15 13:25:55;;;;;;;5.27;2.53;;;9.50;99.90;;;;;;5062800;28;20208;-72
2023/11/15 13:28:44;;;;;;;4.57;2.60;;;9.00;99.90;;;;;;5063698;28;20240;-73
2023/11/15 13:31:31;;;;;;;3.80;1.67;;;8.80;99.90;;;;;;5064126;28;20924;-72
2023/11/15 13:34:19;;;;;;;5.23;2.30;;;8.70;99.90;;;;;;5062587;28;20279;-73
2023/11/15 13:37:08;;;;;;;3.13;1.60;;;8.50;99.90;;;;;;5065591;28;20848;-72
2023/11/15 13:39:55;;;;;;;3.83;2.30;;;8.30;99.90;;;;;;5062056;28;20215;-72
2023/11/15 13:42:42;;;;;;;6.40;2.67;;;8.20;99.90;;;;;;5064040;28;20356;-72
2023/11/15 13:45:30;;;;;;;5.47;2.17;;;8.20;99.90;;;;;;5060606;28;20243;-73
2023/11/15 13:48:17;;;;;;;2.37;1.60;;;8.10;99.90;;;;;;5064969;28;20910;-73
2023/11/15 13:51:06;;;;;;;6.23;1.80;;;8.10;99.90;;;;;;5061361;28;20246;-72
2023/11/15 13:53:55;;;;;;;4.93;1.70;;;8.10;99.90;;;;;;5059181;28;20676;-72
2023/11/15 13:56:42;;;;;;;2.97;1.77;;;8.10;99.90;;;;;;5062331;28;20208;-72
2023/11/15 13:59:32;;;;;;;2.73;1.60;;;8.00;99.90;;;;;;5064358;28;20270;-72
2023/11/15 14:02:19;;;;;;;6.13;1.67;;;7.90;99.90;;;;;;5063380;28;20279;-72
2023/11/15 14:05:12;;;;;;;6.43;2.00;;;7.90;99.90;;;;;;5063186;28;20508;-73
2023/11/15 14:07:59;;;;;;;3.93;1.90;;;7.90;99.90;;;;;;5062260;28;20204;-73
2023/11/15 14:10:48;;;;;;;2.40;1.07;;;7.80;99.90;;;;;;5059607;28;20461;-72
2023/11/15 14:13:36;;;;;;;3.77;1.70;;;7.70;99.90;;;;;;5063791;28;20210;-72
2023/11/15 14:16:23;;;;;;;4.57;1.77;;;7.60;99.90;;;;;;5063241;28;20583;-72
2023/11/15 14:19:11;;;;;;;4.17;1.80;;;7.50;99.90;;;;;;5063405;28;20214;-72
2023/11/15 14:21:58;;;;;;;3.30;1.77;;;7.60;99.90;;;;;;5060711;28;20200;-73
2023/11/15 14:24:46;;;;;;;2.73;1.80;;;7.60;99.90;;;;;;5065201;28;20218;-72
2023/11/15 14:27:37;;;;;;;4.57;1.90;;;7.50;99.90;;;;;;5062226;28;20251;-72
2023/11/15 14:30:24;;;;;;;2.97;1.23;;;7.50;99.90;;;;;;5060559;28;20753;-72
2023/11/15 14:33:12;;;;;;;3.93;2.23;;;7.40;99.90;;;;;;5063776;28;20563;-72
2023/11/15 14:35:59;;;;;;;4.20;2.20;;;7.50;99.90;;;;;;5066097;28;20227;-72
2023/11/15 14:38:47;;;;;;;5.17;2.50;;;7.50;99.90;;;;;;5064771;28;20205;-71
2023/11/15 14:41:34;;;;;;;4.83;2.20;;;7.40;99.90;;;;;;5064470;28;20225;-72
2023/11/15 14:44:24;;;;;;;6.07;2.13;;;7.40;99.90;;;;;;5062979;28;20772;-73